Dothan Regional Airport

Airport
ICAO code: 
KDHN
Summary
ICAO Region: 
NAM
Territory: 
Location: 
Dothan, Alabama,
Elevation: 
401 ft
Coordinates: 
Aerial View: 
31° 19' 16" N, 85° 26' 57.998" W
Airport WX: 
Cumulonimbus
Metar
Observation
KDHN 040753Z AUTO 24005KT 3SM BR CLR 14/14 A3013 RMK AO2 SLP200 T01390139
Station
Dothan, Dothan Regional Airport
Date/Time
2021-12-04 07:53:00
Wind direction
240°
Wind speed
05 kts
Lowest cloud amount
n/a
Temperature
13.9°C
Dew point
13.9°C
Humidity
100%
Weather condition
mist

Description

Regional airport serving the city of Dothan and south eastern Alabama, USA.

Climatology

Humid “subtropical” climate (Köppen climate classification Cfa) - characterized by hot, humid summers and cool winters. Significant amounts of precipitation occur in all seasons in most areas. Winter rainfall (and sometimes snowfall) is associated with large storms that the westerlies steer from west to east. Most summer rainfall occurs during thunderstorms and occasional tropical storms (hurricanes).

Runways

Designator Length Width Surface Rops
18/36 1524 46 ASP Yes/Yes
14/32 2590 46 ASP Yes/Yes
Airport map: 
Aerial View: 

SKYbrary Partners:

Safety knowledge contributed by: